Time;durP1;ratioP1;P1;durP2;ratioP2;P2;SDS_P1;SDS_P2;PMS_P1;PMS_P2;Temp;Humidity;BMP_temperature;BMP_pressure;BME280_temperature;BME280_humidity;BME280_pressure;Samples;Min_cycle;Max_cycle;Signal;HPM_P1;HPM_P2
2022/04/12 04:00:32;;;;;;;6.30;4.33;;;2.30;96.30;;;;;;6060140;23;21730;31
2022/04/12 04:02:57;;;;;;;4.03;3.23;;;2.30;96.30;;;;;;4933729;29;20461;-74
2022/04/12 04:05:23;;;;;;;3.50;2.73;;;2.30;96.30;;;;;;4934267;29;20515;-74
2022/04/12 04:07:49;;;;;;;8.37;2.90;;;2.30;96.30;;;;;;4935082;29;20180;-74
2022/04/12 04:10:15;;;;;;;5.23;3.43;;;2.30;96.30;;;;;;4935057;29;20451;-74
2022/04/12 04:12:42;;;;;;;4.47;3.00;;;2.30;96.30;;;;;;4953397;29;20190;-75
2022/04/12 04:15:12;;;;;;;4.30;2.70;;;2.20;96.30;;;;;;4959474;28;20910;-78
2022/04/12 04:17:47;;;;;;;3.03;2.33;;;2.20;96.30;;;;;;4962051;28;20427;-78
2022/04/12 04:32:59;;;;;;;15.53;3.53;;;1.90;96.30;;;;;;5778295;23;20488;-74
2022/04/12 04:35:25;;;;;;;7.63;3.50;;;1.90;96.30;;;;;;4991948;28;20938;-77
2022/04/12 04:37:51;;;;;;;5.70;3.70;;;1.90;96.30;;;;;;4974849;28;20181;-76
2022/04/12 04:40:21;;;;;;;8.90;4.80;;;1.80;96.30;;;;;;4992834;28;20409;-75
2022/04/12 04:42:48;;;;;;;4.77;2.83;;;1.60;96.30;;;;;;4992850;28;20169;-74
2022/04/12 04:45:15;;;;;;;5.57;3.03;;;1.70;96.30;;;;;;4992789;28;20490;-76
2022/04/12 04:47:52;;;;;;;5.77;3.10;;;1.90;96.30;;;;;;4975836;28;20426;-74
2022/04/12 05:06:29;;;;;;;9.40;5.20;;;2.80;96.30;;;;;;6035815;23;21062;-75
2022/04/12 05:08:55;;;;;;;10.90;6.73;;;2.80;96.30;;;;;;4974378;28;20461;-74
2022/04/12 05:18:11;;;;;;;6.17;2.50;;;3.50;96.30;;;;;;4995458;28;20376;-74
2022/04/12 05:25:48;;;;;;;12.50;5.50;;;4.20;96.30;;;;;;6134623;23;20844;-77
2022/04/12 05:28:13;;;;;;;20.80;7.60;;;4.40;96.30;;;;;;4974944;28;20434;-76
2022/04/12 05:30:39;;;;;;;21.87;10.33;;;4.70;96.30;;;;;;4976477;28;20571;-77
2022/04/12 05:33:04;;;;;;;8.50;3.73;;;5.40;96.30;;;;;;4976753;28;20202;-78
2022/04/12 05:35:30;;;;;;;8.50;4.40;;;6.10;96.30;;;;;;4976650;28;20536;-77
2022/04/12 05:37:56;;;;;;;6.30;3.50;;;6.50;96.30;;;;;;4975301;28;20170;-77
2022/04/12 05:42:57;;;;;;;5.63;2.87;;;7.00;95.00;;;;;;5105436;23;20977;-77
2022/04/12 05:45:22;;;;;;;3.30;2.53;;;7.10;95.40;;;;;;4976610;28;20441;-78
2022/04/12 05:47:49;;;;;;;4.40;2.33;;;7.60;93.50;;;;;;4960317;28;20170;-78
2022/04/12 05:50:16;;;;;;;6.43;2.60;;;7.90;91.80;;;;;;4972578;28;20549;-78
2022/04/12 05:52:42;;;;;;;7.07;2.80;;;8.00;91.20;;;;;;4994975;28;20436;-76
2022/04/12 05:55:10;;;;;;;4.90;2.50;;;8.40;90.60;;;;;;4995731;28;20417;-77
2022/04/12 05:57:38;;;;;;;4.57;2.47;;;8.20;89.70;;;;;;4995492;28;20420;-78
2022/04/12 06:00:06;;;;;;;3.97;2.30;;;8.30;89.90;;;;;;4995829;28;20408;-78
2022/04/12 06:02:32;;;;;;;4.07;2.63;;;8.50;89.30;;;;;;4978162;28;20951;-76
2022/04/12 06:04:57;;;;;;;6.10;3.40;;;8.60;89.10;;;;;;4995940;28;20417;-77
2022/04/12 06:07:29;;;;;;;3.47;2.60;;;8.80;88.50;;;;;;4995920;28;20174;-75
2022/04/12 06:09:54;;;;;;;4.13;2.30;;;9.10;86.90;;;;;;4995688;28;20224;-77
2022/04/12 06:12:20;;;;;;;8.20;4.97;;;8.90;87.60;;;;;;4995568;28;20428;-76
2022/04/12 06:14:45;;;;;;;7.07;4.07;;;9.00;87.80;;;;;;4995570;28;20257;-78
2022/04/12 06:17:11;;;;;;;7.67;5.63;;;8.70;88.30;;;;;;4978164;28;20177;-78
2022/04/12 06:19:36;;;;;;;4.87;3.17;;;9.00;87.70;;;;;;4995413;28;20188;-77
2022/04/12 06:22:02;;;;;;;6.83;4.40;;;9.00;87.50;;;;;;4995666;28;20213;-77
2022/04/12 06:24:27;;;;;;;7.40;3.70;;;8.90;87.60;;;;;;4995599;28;20261;-77
2022/04/12 06:26:53;;;;;;;6.10;3.03;;;9.30;88.60;;;;;;4995705;28;20272;-76
2022/04/12 06:29:18;;;;;;;5.90;3.90;;;9.70;87.00;;;;;;4977997;28;20193;-77
2022/04/12 06:31:44;;;;;;;7.33;4.23;;;10.00;85.50;;;;;;4996053;28;20539;-77
2022/04/12 06:34:09;;;;;;;3.60;3.10;;;10.00;86.60;;;;;;4996019;28;20181;-77
2022/04/12 06:36:35;;;;;;;8.70;3.80;;;11.00;82.70;;;;;;4978658;28;20194;-78
2022/04/12 06:39:00;;;;;;;5.90;4.00;;;11.10;81.80;;;;;;4996038;28;20165;-77
2022/04/12 06:41:26;;;;;;;5.77;3.53;;;11.10;83.10;;;;;;4979285;28;20205;-78
2022/04/12 06:43:51;;;;;;;4.80;3.23;;;11.60;81.20;;;;;;4996909;28;20281;-76
2022/04/12 06:46:16;;;;;;;4.43;3.20;;;12.20;79.90;;;;;;4979513;28;20598;-77
2022/04/12 06:48:42;;;;;;;6.30;4.63;;;12.10;79.80;;;;;;4979743;28;20174;-77
2022/04/12 06:51:07;;;;;;;5.37;3.40;;;12.70;77.90;;;;;;4996927;28;20213;-77
2022/04/12 06:53:34;;;;;;;5.20;3.33;;;12.90;76.40;;;;;;4996856;28;20173;-78
2022/04/12 06:56:00;;;;;;;3.90;2.97;;;12.80;77.40;;;;;;4997212;28;20165;-77
2022/04/12 06:58:25;;;;;;;7.97;3.50;;;13.10;76.30;;;;;;4996706;28;20484;-78
2022/04/12 07:00:51;;;;;;;5.33;3.50;;;13.70;75.70;;;;;;4996741;28;20699;-77
2022/04/12 07:03:16;;;;;;;8.43;3.67;;;14.20;74.30;;;;;;4996918;28;20173;-77
2022/04/12 07:05:41;;;;;;;5.00;3.00;;;14.20;74.20;;;;;;4979536;28;20189;-78
2022/04/12 07:08:07;;;;;;;3.37;3.00;;;15.70;71.50;;;;;;4997205;28;20182;-77
2022/04/12 07:10:33;;;;;;;4.80;2.37;;;15.70;68.90;;;;;;4996430;28;20205;-77
2022/04/12 07:12:58;;;;;;;10.77;4.00;;;14.60;70.80;;;;;;4997043;28;20185;-77
2022/04/12 07:15:24;;;;;;;3.37;2.77;;;14.00;75.00;;;;;;4996893;28;20173;-77
2022/04/12 07:17:49;;;;;;;4.07;2.47;;;14.90;72.20;;;;;;4996119;28;20193;-77
2022/04/12 07:20:15;;;;;;;5.67;3.23;;;14.90;70.90;;;;;;4996321;28;20589;-78
2022/04/12 07:22:40;;;;;;;4.83;3.50;;;14.60;74.00;;;;;;4996366;28;20592;-77
2022/04/12 07:25:07;;;;;;;4.03;2.43;;;14.20;72.80;;;;;;4978795;28;20193;-78
2022/04/12 07:27:34;;;;;;;7.20;3.13;;;14.10;72.90;;;;;;4995378;28;20235;-77
2022/04/12 07:30:00;;;;;;;7.40;2.90;;;15.10;72.20;;;;;;4978536;28;20521;-77
2022/04/12 07:32:26;;;;;;;4.87;3.50;;;15.10;72.50;;;;;;4996213;28;20932;-78
2022/04/12 07:34:51;;;;;;;6.67;4.10;;;15.60;69.90;;;;;;4996428;28;20165;-77
2022/04/12 07:37:16;;;;;;;5.70;3.67;;;15.60;70.90;;;;;;4996157;28;20169;-77
2022/04/12 07:39:42;;;;;;;4.33;2.60;;;16.00;69.60;;;;;;4995815;28;20304;-78
2022/04/12 07:42:07;;;;;;;11.20;2.70;;;15.10;68.50;;;;;;4995380;28;20213;-77
2022/04/12 07:44:33;;;;;;;7.27;2.37;;;15.50;69.90;;;;;;4995710;28;20217;-78
2022/04/12 07:46:59;;;;;;;3.23;2.27;;;16.00;70.80;;;;;;4978630;28;20181;-78
2022/04/12 07:49:26;;;;;;;4.17;2.50;;;15.80;67.80;;;;;;4995584;28;20190;-78
2022/04/12 07:51:51;;;;;;;3.47;1.70;;;16.30;68.20;;;;;;4994575;28;20200;-76
2022/04/12 07:54:17;;;;;;;3.27;2.43;;;16.60;67.00;;;;;;4977164;28;20496;-77
2022/04/12 07:56:42;;;;;;;4.00;2.30;;;17.00;65.30;;;;;;4994103;28;20176;-77
2022/04/12 07:59:10;;;;;;;5.00;2.40;;;17.20;67.90;;;;;;4993978;28;20678;-76
2022/04/12 08:01:36;;;;;;;6.80;2.20;;;16.90;65.20;;;;;;4994039;28;20224;-77
2022/04/12 08:04:01;;;;;;;4.10;2.10;;;16.30;66.60;;;;;;4994098;28;20417;-76
2022/04/12 08:06:27;;;;;;;5.10;2.03;;;16.60;67.10;;;;;;4993876;28;20285;-76
2022/04/12 08:08:52;;;;;;;4.93;2.20;;;16.50;66.20;;;;;;4993620;28;20515;-77
2022/04/12 08:11:18;;;;;;;3.93;2.20;;;17.20;66.80;;;;;;4993740;28;20228;-77
2022/04/12 08:13:45;;;;;;;6.80;2.00;;;17.00;64.00;;;;;;4993547;28;20173;-77
2022/04/12 08:16:11;;;;;;;2.50;1.90;;;15.70;64.30;;;;;;4993485;28;20574;-76
2022/04/12 08:18:37;;;;;;;3.23;2.00;;;14.60;67.40;;;;;;4993025;28;20412;-76
2022/04/12 08:21:02;;;;;;;2.57;1.93;;;15.30;66.60;;;;;;4993349;28;20193;-77
2022/04/12 08:23:28;;;;;;;1.90;1.63;;;15.40;66.40;;;;;;4993402;28;20220;-76
2022/04/12 08:25:54;;;;;;;2.70;1.73;;;15.20;65.00;;;;;;4993437;28;20232;-76
2022/04/12 08:28:20;;;;;;;2.90;1.90;;;15.00;67.50;;;;;;4993003;28;20298;-76
2022/04/12 08:30:45;;;;;;;3.80;2.00;;;16.20;65.10;;;;;;4992940;28;20227;-76
2022/04/12 08:33:11;;;;;;;4.00;2.00;;;15.80;64.20;;;;;;4993198;28;20205;-76
2022/04/12 08:35:36;;;;;;;3.17;1.67;;;15.50;65.00;;;;;;4993234;28;20199;-76
2022/04/12 08:38:02;;;;;;;1.30;1.03;;;15.50;64.20;;;;;;4992556;28;20201;-77
2022/04/12 08:40:28;;;;;;;3.93;1.70;;;15.50;65.20;;;;;;4993032;28;20177;-76
2022/04/12 08:42:57;;;;;;;1.87;1.70;;;15.30;64.70;;;;;;4992833;28;20440;-76
2022/04/12 08:45:22;;;;;;;2.33;1.63;;;15.40;66.00;;;;;;4993047;28;20412;-76
2022/04/12 08:47:50;;;;;;;3.70;1.90;;;15.20;65.80;;;;;;4992560;28;20783;-76
2022/04/12 08:50:15;;;;;;;4.23;1.60;;;15.40;65.40;;;;;;4975436;28;20216;-75
2022/04/12 08:52:41;;;;;;;2.50;2.03;;;15.30;65.00;;;;;;4992807;28;20405;-77
2022/04/12 08:55:08;;;;;;;2.10;1.63;;;15.00;66.80;;;;;;4992742;28;20660;-77
2022/04/12 08:57:33;;;;;;;2.57;1.50;;;14.80;65.70;;;;;;4992554;28;20169;-77
2022/04/12 08:59:59;;;;;;;2.17;1.60;;;14.40;65.90;;;;;;4992624;28;20419;-78
2022/04/12 09:02:25;;;;;;;3.23;1.83;;;14.20;65.30;;;;;;4992537;28;20240;-77
2022/04/12 09:04:51;;;;;;;2.67;1.80;;;14.60;67.10;;;;;;4992664;28;20173;-76
2022/04/12 09:07:22;;;;;;;2.83;1.40;;;14.80;65.70;;;;;;4992637;28;20209;-77
2022/04/12 09:09:48;;;;;;;3.30;1.50;;;14.60;65.60;;;;;;4992413;28;20460;-78
2022/04/12 09:12:14;;;;;;;2.73;1.37;;;14.80;66.40;;;;;;4992564;28;20511;-76
2022/04/12 09:14:52;;;;;;;2.27;1.60;;;14.70;66.60;;;;;;4992421;28;20225;-77
2022/04/12 09:17:34;;;;;;;2.73;1.47;;;14.50;65.10;;;;;;4992451;28;20750;-77
2022/04/12 09:19:59;;;;;;;2.23;1.40;;;14.50;66.10;;;;;;4975087;28;20487;-76
2022/04/12 09:22:26;;;;;;;1.67;1.33;;;14.40;64.80;;;;;;4992464;28;20956;-77
2022/04/12 09:24:54;;;;;;;1.80;1.30;;;14.50;65.40;;;;;;4992276;28;20209;-77
2022/04/12 09:27:22;;;;;;;5.30;2.13;;;14.30;65.00;;;;;;4992449;28;20534;-78
2022/04/12 09:30:00;;;;;;;3.77;1.90;;;14.90;66.10;;;;;;4992092;28;20496;-77
2022/04/12 09:32:28;;;;;;;2.60;1.73;;;14.80;65.90;;;;;;4992463;28;20452;-77
2022/04/12 09:34:55;;;;;;;2.63;1.50;;;14.80;65.40;;;;;;4992371;28;20405;-76
2022/04/12 09:37:28;;;;;;;3.00;2.00;;;14.60;68.40;;;;;;4992534;28;20401;-78
2022/04/12 09:39:59;;;;;;;2.33;1.50;;;14.80;65.50;;;;;;4992344;28;20904;-78
2022/04/12 09:42:38;;;;;;;3.23;2.03;;;15.10;64.60;;;;;;4992108;28;21223;-77
2022/04/12 09:45:06;;;;;;;2.33;1.70;;;15.30;65.20;;;;;;4992244;28;20747;-77
2022/04/12 09:47:32;;;;;;;3.37;2.30;;;15.30;63.90;;;;;;4992011;28;20417;-77
2022/04/12 09:49:58;;;;;;;11.10;2.43;;;15.30;65.60;;;;;;4993818;28;20467;-77
2022/04/12 09:52:24;;;;;;;2.00;1.57;;;15.50;64.60;;;;;;4978488;28;20468;-78
2022/04/12 09:54:51;;;;;;;3.23;1.80;;;;;;;;;;4995759;28;20510;-78
2022/04/12 09:57:17;;;;;;;2.57;1.40;;;15.30;65.30;;;;;;4995823;28;20181;-76
2022/04/12 09:59:44;;;;;;;2.97;2.03;;;15.80;66.00;;;;;;4978014;28;20519;-77
2022/04/12 10:02:11;;;;;;;3.80;2.20;;;16.00;63.20;;;;;;4995651;28;20440;-76
2022/04/12 10:04:38;;;;;;;1.73;1.60;;;16.00;63.30;;;;;;4978230;28;20417;-76
2022/04/12 10:07:09;;;;;;;5.93;1.73;;;15.80;62.60;;;;;;4995715;28;20416;-77
2022/04/12 10:09:37;;;;;;;3.00;1.50;;;15.60;64.90;;;;;;4995336;28;20820;-76
2022/04/12 10:12:05;;;;;;;4.10;2.30;;;15.00;65.00;;;;;;4977894;28;20786;-76
2022/04/12 10:14:31;;;;;;;1.53;1.27;;;15.40;65.80;;;;;;4995354;28;20413;-77
2022/04/12 10:16:57;;;;;;;4.67;2.03;;;15.10;66.30;;;;;;4995481;28;20409;-78
2022/04/12 10:19:23;;;;;;;3.40;1.60;;;16.00;65.70;;;;;;4977949;28;20174;-78
2022/04/12 10:21:48;;;;;;;2.40;1.40;;;16.00;63.70;;;;;;4995311;28;20437;-77
2022/04/12 10:24:16;;;;;;;2.83;1.60;;;15.50;63.10;;;;;;4977890;28;20429;-77
2022/04/12 10:26:45;;;;;;;2.17;1.47;;;15.10;64.40;;;;;;4995435;28;20173;-78
2022/04/12 10:29:11;;;;;;;1.50;1.30;;;;;;;;;;4994984;28;20905;-77
2022/04/12 10:31:36;;;;;;;3.73;1.73;;;15.00;64.00;;;;;;4995065;28;20464;-78
2022/04/12 10:34:13;;;;;;;3.03;1.60;;;15.10;66.30;;;;;;4995166;28;20181;-78
2022/04/12 10:37:00;;;;;;;2.47;1.40;;;16.00;66.50;;;;;;4977564;28;20548;-76
2022/04/12 10:39:46;;;;;;;2.90;1.53;;;16.00;63.70;;;;;;4994874;28;20420;-77
2022/04/12 10:42:16;;;;;;;13.47;1.77;;;15.40;64.50;;;;;;4994817;28;20460;-76
2022/04/12 10:44:44;;;;;;;1.50;1.20;;;15.20;64.10;;;;;;4994839;28;20445;-77
2022/04/12 10:47:45;;;;;;;2.93;1.60;;;15.20;64.40;;;;;;4977396;28;20471;-76
2022/04/12 10:50:13;;;;;;;4.90;1.60;;;15.60;66.20;;;;;;4896658;29;20982;-77
2022/04/12 10:52:44;;;;;;;3.10;1.60;;;15.70;65.60;;;;;;4958737;28;20965;-76
2022/04/12 10:55:25;;;;;;;4.03;1.67;;;15.90;63.10;;;;;;4994666;28;20413;-76
2022/04/12 10:57:52;;;;;;;1.80;1.33;;;;;;;;;;4994675;28;20432;-76
2022/04/12 11:00:22;;;;;;;2.30;1.73;;;;;;;;;;4994286;28;20455;-76
2022/04/12 11:02:56;;;;;;;3.30;1.70;;;;;;;;;;4993957;28;21083;-77
2022/04/12 11:05:52;;;;;;;3.90;2.20;;;;;;;;;;4994579;28;20413;-77
2022/04/12 11:08:18;;;;;;;2.30;1.50;;;;;;;;;;4994276;28;20904;-76
2022/04/12 11:10:54;;;;;;;4.40;1.60;;;16.30;62.90;;;;;;4994416;28;20961;-77
2022/04/12 11:13:22;;;;;;;3.43;1.97;;;16.30;62.90;;;;;;4976965;28;20173;-77
2022/04/12 11:15:55;;;;;;;3.03;2.10;;;16.10;62.40;;;;;;4994365;28;20409;-76
2022/04/12 11:18:21;;;;;;;5.53;1.77;;;15.50;63.50;;;;;;4994011;28;20492;-76
2022/04/12 11:20:59;;;;;;;2.17;1.87;;;;;;;;;;4994243;28;20532;-78
2022/04/12 11:23:48;;;;;;;3.10;2.00;;;15.80;65.70;;;;;;4995258;28;20223;-77
2022/04/12 11:26:38;;;;;;;8.10;2.27;;;16.20;63.30;;;;;;4995079;28;20936;-77
2022/04/12 11:29:11;;;;;;;2.17;1.80;;;15.90;62.30;;;;;;4994541;28;20441;-77
2022/04/12 11:31:47;;;;;;;4.20;2.10;;;15.50;63.70;;;;;;4993905;28;20471;-76
2022/04/12 11:34:15;;;;;;;4.13;2.40;;;15.80;62.90;;;;;;4994204;28;20738;-77
2022/04/12 11:36:50;;;;;;;2.97;2.20;;;15.60;64.60;;;;;;4976418;28;20495;-77
2022/04/12 11:39:20;;;;;;;3.63;2.00;;;15.70;63.80;;;;;;4993984;28;20448;-77
2022/04/12 12:02:32;;;;;;;2.43;1.60;;;16.10;60.80;;;;;;5070998;23;20858;-76
2022/04/12 12:05:07;;;;;;;2.70;1.83;;;16.10;61.80;;;;;;4973968;28;20433;-74
2022/04/12 12:07:36;;;;;;;5.33;2.67;;;16.00;62.40;;;;;;4973793;28;20889;-74
2022/04/12 12:10:05;;;;;;;3.93;2.43;;;16.20;59.90;;;;;;4973851;28;20472;-74
2022/04/12 12:12:45;;;;;;;6.00;2.47;;;15.80;61.00;;;;;;4973380;28;20921;-75
2022/04/12 12:15:30;;;;;;;3.40;2.67;;;15.70;61.30;;;;;;4974569;28;20406;-76
2022/04/12 12:17:58;;;;;;;6.97;3.20;;;16.20;62.80;;;;;;4973435;28;20484;-74
2022/04/12 14:04:06;;;;;;;10.00;7.50;;;16.40;64.80;;;;;;4938616;29;20991;-75
2022/04/12 14:06:31;;;;;;;14.40;8.73;;;16.10;64.40;;;;;;4929986;29;20419;-69
2022/04/12 14:08:57;;;;;;;10.67;7.67;;;16.00;64.90;;;;;;4955663;29;20267;-70
2022/04/12 14:11:22;;;;;;;10.37;6.80;;;16.00;65.20;;;;;;4965873;28;20289;-69
2022/04/12 14:13:48;;;;;;;11.97;9.97;;;16.20;63.50;;;;;;4974944;28;20174;-69
2022/04/12 14:16:15;;;;;;;10.90;8.93;;;16.00;65.10;;;;;;4975155;28;20521;-69
2022/04/12 14:18:41;;;;;;;14.10;8.20;;;15.90;65.60;;;;;;4975547;28;20178;-70
2022/04/12 14:21:08;;;;;;;14.63;8.50;;;15.90;66.20;;;;;;4975075;28;20537;-69
2022/04/12 14:23:37;;;;;;;10.53;8.93;;;15.80;64.60;;;;;;4958384;28;20206;-69
2022/04/12 14:26:06;;;;;;;13.67;7.80;;;16.00;64.80;;;;;;4975742;28;20417;-69
2022/04/12 14:28:34;;;;;;;9.47;6.93;;;15.90;65.10;;;;;;4974849;28;20433;-70
2022/04/12 14:31:00;;;;;;;12.50;8.70;;;15.90;65.10;;;;;;4975522;28;20469;-69
2022/04/12 14:33:26;;;;;;;16.77;9.77;;;15.70;64.70;;;;;;4975569;28;20445;-69
2022/04/12 14:35:51;;;;;;;9.77;8.30;;;15.90;65.30;;;;;;4975286;28;20429;-69
2022/04/12 14:38:17;;;;;;;10.93;7.30;;;16.00;64.70;;;;;;4958130;28;20734;-69
2022/04/12 14:40:43;;;;;;;12.17;8.43;;;16.10;63.70;;;;;;4975456;28;20690;-69
2022/04/12 14:43:09;;;;;;;12.23;8.57;;;16.00;64.60;;;;;;4975590;28;20170;-69
2022/04/12 14:45:35;;;;;;;12.40;9.23;;;15.90;64.90;;;;;;4974822;28;20945;-69
2022/04/12 14:48:00;;;;;;;13.40;9.53;;;16.30;64.20;;;;;;4962552;28;20183;-69
2022/04/12 14:50:28;;;;;;;9.90;7.83;;;16.10;64.10;;;;;;4962187;28;20477;-69
2022/04/12 14:52:54;;;;;;;12.93;8.80;;;16.40;64.20;;;;;;4960690;28;20190;-69
2022/04/12 14:55:24;;;;;;;12.93;9.47;;;16.40;63.90;;;;;;4973682;28;20853;-69
2022/04/12 14:57:52;;;;;;;15.40;9.87;;;16.30;64.60;;;;;;4975160;28;20594;-70
2022/04/12 15:00:18;;;;;;;15.30;9.27;;;16.00;66.00;;;;;;4972188;28;20433;-70
2022/04/12 15:02:43;;;;;;;11.83;8.60;;;16.30;65.70;;;;;;4974415;28;20445;-70
2022/04/12 15:05:09;;;;;;;14.13;9.77;;;16.00;64.70;;;;;;4973259;28;20178;-70
2022/04/12 15:07:35;;;;;;;10.63;8.00;;;15.80;65.50;;;;;;4948813;28;20214;-70
2022/04/12 15:10:02;;;;;;;17.07;9.20;;;15.90;65.70;;;;;;4946130;28;20198;-71
2022/04/12 15:12:28;;;;;;;13.37;9.47;;;16.00;65.40;;;;;;4952714;28;20572;-70
2022/04/12 15:14:54;;;;;;;14.87;10.57;;;16.10;65.40;;;;;;4974121;28;20414;-70
2022/04/12 15:17:19;;;;;;;16.00;10.43;;;16.20;67.50;;;;;;4973274;28;20237;-71
2022/04/12 15:19:45;;;;;;;14.10;9.90;;;16.50;67.10;;;;;;4961500;28;20190;-69
2022/04/12 15:22:10;;;;;;;13.57;9.90;;;16.10;65.70;;;;;;4962366;28;20678;-70
2022/04/12 15:24:36;;;;;;;15.27;11.00;;;15.80;66.00;;;;;;4964817;28;20666;-69
2022/04/12 15:27:01;;;;;;;15.00;10.70;;;15.90;66.50;;;;;;4968071;28;20186;-69
2022/04/12 15:29:27;;;;;;;16.87;10.37;;;15.70;67.40;;;;;;4965003;28;20201;-69
2022/04/12 15:31:52;;;;;;;14.33;8.83;;;16.10;67.50;;;;;;4967423;28;20653;-69
2022/04/12 15:34:18;;;;;;;15.73;9.87;;;16.00;66.60;;;;;;4968312;28;20199;-69
2022/04/12 15:36:43;;;;;;;11.73;8.97;;;15.80;67.40;;;;;;4963343;28;20218;-69
2022/04/12 15:39:09;;;;;;;13.60;10.20;;;15.90;68.00;;;;;;4963323;28;20201;-69
2022/04/12 15:41:34;;;;;;;13.20;9.17;;;16.00;68.00;;;;;;4961424;28;20202;-69
2022/04/12 15:44:00;;;;;;;14.47;9.07;;;16.20;68.60;;;;;;4961473;28;20209;-70
2022/04/12 15:46:25;;;;;;;11.90;9.23;;;16.50;67.30;;;;;;4973764;28;20178;-70
2022/04/12 15:48:51;;;;;;;16.63;10.80;;;16.40;66.40;;;;;;4970831;28;20178;-70
2022/04/12 15:51:17;;;;;;;17.13;9.80;;;16.10;67.50;;;;;;4971355;28;20576;-70
2022/04/12 15:53:43;;;;;;;10.50;9.17;;;16.00;67.70;;;;;;4965710;28;20658;-70
2022/04/12 15:56:11;;;;;;;14.00;10.27;;;16.10;67.40;;;;;;4970518;28;20429;-70
2022/04/12 15:58:37;;;;;;;12.20;8.93;;;16.10;67.20;;;;;;4958628;28;20429;-70
2022/04/12 16:01:03;;;;;;;11.97;9.17;;;16.10;67.00;;;;;;4961067;28;20475;-70
2022/04/12 16:03:29;;;;;;;18.57;10.90;;;15.80;67.20;;;;;;4962600;28;20438;-69
2022/04/12 16:05:55;;;;;;;11.30;8.77;;;15.60;68.20;;;;;;4969577;28;20201;-69
2022/04/12 16:08:20;;;;;;;16.10;11.07;;;15.30;69.30;;;;;;4958545;28;20923;-70
2022/04/12 16:10:46;;;;;;;16.50;9.17;;;15.30;69.40;;;;;;4966605;28;20218;-70
2022/04/12 16:13:12;;;;;;;12.23;7.60;;;15.10;68.10;;;;;;4949167;28;20171;-70
2022/04/12 16:15:37;;;;;;;17.47;10.40;;;15.10;68.80;;;;;;4964655;28;20517;-70
2022/04/12 16:18:03;;;;;;;11.60;8.73;;;14.90;68.80;;;;;;4962182;28;20595;-72
2022/04/12 16:20:28;;;;;;;19.00;9.80;;;14.60;69.20;;;;;;4969968;28;20261;-71
2022/04/12 16:22:54;;;;;;;22.37;12.27;;;14.50;69.80;;;;;;4965882;28;20174;-72
2022/04/12 16:25:20;;;;;;;16.73;9.00;;;14.50;70.30;;;;;;4963970;28;20190;-71
2022/04/12 16:27:45;;;;;;;16.83;10.33;;;14.50;70.70;;;;;;4960382;28;20194;-71
2022/04/12 16:30:11;;;;;;;18.97;12.20;;;14.50;71.00;;;;;;4966921;28;20232;-71
2022/04/12 16:32:37;;;;;;;19.73;11.20;;;14.40;71.70;;;;;;4958582;28;20179;-71
2022/04/12 16:35:03;;;;;;;15.27;10.37;;;14.10;72.00;;;;;;4968596;28;20185;-71
2022/04/12 16:37:28;;;;;;;16.10;11.10;;;14.10;72.20;;;;;;4973511;28;20171;-72
2022/04/12 16:39:55;;;;;;;16.00;9.40;;;14.20;72.90;;;;;;4973336;28;20421;-71
2022/04/12 16:42:21;;;;;;;17.10;10.20;;;14.20;72.90;;;;;;4946194;28;20315;-71
2022/04/12 16:44:47;;;;;;;13.87;9.90;;;14.10;73.20;;;;;;4969137;28;20508;-72
2022/04/12 16:47:12;;;;;;;18.63;11.80;;;14.00;73.10;;;;;;4969264;28;20967;-72
2022/04/12 16:49:38;;;;;;;18.37;12.20;;;14.00;73.70;;;;;;4966352;28;20658;-71
2022/04/12 16:52:04;;;;;;;20.53;11.37;;;13.90;74.10;;;;;;4969305;28;20202;-71
2022/04/12 16:54:30;;;;;;;17.17;9.87;;;13.80;74.80;;;;;;4973248;28;20286;-72
2022/04/12 16:56:56;;;;;;;18.00;11.33;;;13.80;74.50;;;;;;4973267;28;20181;-71
2022/04/12 16:59:21;;;;;;;13.43;9.73;;;13.60;75.20;;;;;;4972306;28;20163;-71
2022/04/12 17:01:47;;;;;;;17.73;10.23;;;13.50;75.80;;;;;;4972782;28;20352;-72
2022/04/12 17:04:12;;;;;;;12.70;9.80;;;13.40;76.10;;;;;;4968886;28;20197;-71
2022/04/12 17:06:40;;;;;;;23.83;14.70;;;13.30;76.30;;;;;;4965668;28;20182;-72
2022/04/12 17:09:06;;;;;;;16.20;11.47;;;13.30;76.50;;;;;;4971434;28;20185;-72
2022/04/12 17:11:32;;;;;;;18.27;11.17;;;13.20;76.40;;;;;;4969975;28;20461;-71
2022/04/12 17:13:57;;;;;;;15.87;11.93;;;13.00;76.60;;;;;;4957917;28;20415;-71
2022/04/12 17:16:23;;;;;;;16.03;11.37;;;12.90;76.40;;;;;;4953890;29;20584;-71
2022/04/12 17:18:49;;;;;;;17.07;12.20;;;12.80;77.00;;;;;;4966617;28;20171;-71
2022/04/12 17:21:14;;;;;;;14.00;10.53;;;12.80;77.20;;;;;;4967071;28;20194;-71
2022/04/12 17:23:40;;;;;;;17.93;10.37;;;12.60;77.50;;;;;;4970768;28;20189;-71
2022/04/12 17:26:06;;;;;;;10.90;9.57;;;12.60;76.70;;;;;;4964212;28;20670;-71
2022/04/12 17:28:32;;;;;;;14.43;8.03;;;12.50;77.70;;;;;;4962740;28;20257;-70
2022/04/12 17:30:57;;;;;;;13.60;8.50;;;12.40;76.30;;;;;;4968062;28;20611;-75
2022/04/12 17:33:23;;;;;;;12.50;8.20;;;12.30;76.60;;;;;;4951617;28;20186;-76
2022/04/12 17:35:49;;;;;;;12.97;9.67;;;12.30;77.30;;;;;;4972918;28;20222;-76
2022/04/12 17:38:15;;;;;;;13.20;7.93;;;12.30;76.70;;;;;;4962457;28;20655;-77
2022/04/12 17:40:40;;;;;;;14.20;9.03;;;12.20;76.70;;;;;;4964291;28;20434;-76
2022/04/12 17:43:06;;;;;;;16.40;10.93;;;12.10;76.90;;;;;;4957763;28;20233;-76
2022/04/12 17:45:32;;;;;;;14.00;9.20;;;11.90;77.90;;;;;;4959340;28;20185;-76
2022/04/12 17:47:57;;;;;;;11.47;7.20;;;11.90;77.40;;;;;;4972169;28;20186;-76
2022/04/12 17:50:23;;;;;;;13.10;9.00;;;11.90;76.90;;;;;;4950734;28;20206;-77
2022/04/12 17:52:49;;;;;;;13.33;7.60;;;11.90;77.10;;;;;;4948891;29;20595;-75
2022/04/12 17:55:14;;;;;;;13.70;7.47;;;11.80;76.90;;;;;;4953526;29;20441;-77
2022/04/12 17:57:39;;;;;;;12.40;8.00;;;11.80;77.00;;;;;;4943562;28;20186;-78
2022/04/12 18:00:06;;;;;;;12.83;8.60;;;11.70;77.50;;;;;;4954383;28;20550;-77
2022/04/12 18:02:32;;;;;;;12.47;8.30;;;11.70;77.50;;;;;;4972380;28;20221;-77
2022/04/12 18:04:57;;;;;;;13.60;7.90;;;11.60;78.00;;;;;;4953695;28;20422;-77
2022/04/12 18:07:24;;;;;;;12.87;8.20;;;11.60;78.10;;;;;;4968328;28;20201;-77
2022/04/12 18:09:50;;;;;;;14.07;7.97;;;11.40;79.00;;;;;;4937885;28;20754;-78
2022/04/12 18:12:16;;;;;;;14.90;9.40;;;11.40;78.80;;;;;;4939931;29;20473;-77
2022/04/12 18:14:41;;;;;;;10.20;7.57;;;11.30;79.60;;;;;;4961597;28;20430;-76
2022/04/12 18:17:07;;;;;;;12.50;8.27;;;11.20;79.60;;;;;;4975478;28;20197;-77
2022/04/12 18:19:32;;;;;;;10.60;7.43;;;11.20;79.70;;;;;;4966667;28;20187;-76
2022/04/12 18:21:58;;;;;;;13.50;7.67;;;11.00;80.20;;;;;;4975693;28;20198;-76
2022/04/12 18:24:25;;;;;;;14.43;7.73;;;11.00;79.90;;;;;;4975527;28;20182;-77
2022/04/12 18:26:51;;;;;;;18.53;8.70;;;11.00;80.10;;;;;;4975649;28;20646;-75
2022/04/12 18:29:16;;;;;;;17.50;11.20;;;10.90;80.50;;;;;;4975058;28;20406;-76
2022/04/12 18:31:42;;;;;;;14.47;9.47;;;11.00;80.10;;;;;;4975378;28;20631;-75
2022/04/12 18:34:08;;;;;;;23.27;9.20;;;10.90;80.60;;;;;;4972397;28;20166;-76
2022/04/12 18:36:34;;;;;;;17.00;10.40;;;10.80;80.60;;;;;;4975521;28;20258;-75
2022/04/12 18:39:00;;;;;;;19.33;10.30;;;10.80;80.80;;;;;;4958148;28;20182;-76
2022/04/12 18:41:26;;;;;;;10.53;7.37;;;10.70;81.30;;;;;;4975308;28;20937;-76
2022/04/12 18:43:51;;;;;;;16.47;7.30;;;10.80;81.00;;;;;;4975548;28;20439;-76
2022/04/12 18:46:18;;;;;;;14.03;7.80;;;10.80;80.80;;;;;;4975523;28;20181;-76
2022/04/12 18:48:45;;;;;;;11.80;6.30;;;10.80;80.70;;;;;;4975162;28;20167;-76
2022/04/12 18:51:11;;;;;;;13.60;7.90;;;10.70;81.20;;;;;;4957859;28;20545;-75
2022/04/12 18:53:37;;;;;;;13.90;7.30;;;10.80;80.90;;;;;;4975376;28;20410;-77
2022/04/12 18:56:05;;;;;;;9.97;6.40;;;10.60;81.40;;;;;;4975355;28;20413;-76
2022/04/12 18:58:34;;;;;;;16.10;9.70;;;10.60;81.70;;;;;;4974899;28;20174;-77
2022/04/12 19:00:59;;;;;;;11.37;7.07;;;10.50;81.80;;;;;;4975110;28;20520;-76
2022/04/12 19:03:25;;;;;;;21.17;6.60;;;10.60;81.20;;;;;;4975135;28;20472;-76
2022/04/12 19:05:51;;;;;;;15.53;8.20;;;10.60;81.50;;;;;;4975257;28;20680;-80
2022/04/12 19:08:16;;;;;;;11.77;7.20;;;10.60;81.50;;;;;;4975028;28;20170;-75
2022/04/12 19:10:42;;;;;;;11.87;7.47;;;10.50;81.80;;;;;;4957600;28;20682;-76
2022/04/12 19:13:11;;;;;;;15.57;9.17;;;10.40;82.10;;;;;;4975109;28;20515;-76
2022/04/12 19:15:42;;;;;;;14.57;7.87;;;10.40;82.30;;;;;;4975084;28;20642;-75
2022/04/12 19:18:10;;;;;;;11.70;7.87;;;10.40;82.30;;;;;;4974866;28;20418;-76
2022/04/12 19:20:36;;;;;;;13.97;8.47;;;10.30;82.50;;;;;;4974849;28;20996;-76
2022/04/12 19:23:02;;;;;;;11.03;7.47;;;;;;;;;;4973932;28;20438;-76
2022/04/12 19:25:30;;;;;;;10.33;6.77;;;10.40;82.40;;;;;;4974789;28;20210;-77
2022/04/12 19:27:57;;;;;;;11.40;8.37;;;10.30;82.80;;;;;;4974519;28;20452;-76
2022/04/12 19:30:22;;;;;;;11.50;8.80;;;10.20;83.10;;;;;;4957159;28;20512;-76
2022/04/12 19:32:48;;;;;;;15.00;10.20;;;10.10;83.40;;;;;;4974816;28;20414;-76